Time;durP1;ratioP1;P1;durP2;ratioP2;P2;SDS_P1;SDS_P2;PMS_P1;PMS_P2;Temp;Humidity;BMP_temperature;BMP_pressure;BME280_temperature;BME280_humidity;BME280_pressure;Samples;Min_cycle;Max_cycle;Signal;HPM_P1;HPM_P2
2023/01/01 00:01:24;;;;;;;6.38;4.32;;;;;;;;;;5041131;28;20106;-74
2023/01/01 00:03:51;;;;;;;6.20;3.97;;;;;;;;;;5030682;28;20049;-73
2023/01/01 00:06:18;;;;;;;7.75;5.07;;;;;;;;;;5033467;28;20057;-73
2023/01/01 00:08:47;;;;;;;8.52;3.83;;;;;;;;;;5020223;28;20068;-73
2023/01/01 00:11:14;;;;;;;7.63;4.00;;;;;;;;;;5013280;28;20414;-73
2023/01/01 00:13:41;;;;;;;7.00;4.22;;;;;;;;;;5013152;28;20050;-73
2023/01/01 00:16:08;;;;;;;7.43;4.25;;;;;;;;;;5014466;28;20140;-73
2023/01/01 00:18:35;;;;;;;7.18;4.65;;;;;;;;;;5013268;28;20148;-73
2023/01/01 00:21:03;;;;;;;7.15;3.97;;;;;;;;;;5013155;28;20129;-73
2023/01/01 00:23:30;;;;;;;6.57;4.53;;;;;;;;;;5026003;28;20057;-73
2023/01/01 00:25:58;;;;;;;6.30;4.60;;;;;;;;;;5033038;28;20471;-73
2023/01/01 00:28:25;;;;;;;7.28;4.80;;;;;;;;;;5034090;28;20128;-73
2023/01/01 00:30:53;;;;;;;6.22;4.30;;;;;;;;;;5032985;28;20088;-73
2023/01/01 00:33:20;;;;;;;7.28;4.45;;;;;;;;;;5032663;28;20136;-73
2023/01/01 00:35:47;;;;;;;5.32;4.38;;;;;;;;;;5032785;28;20129;-73
2023/01/01 00:38:14;;;;;;;6.10;4.30;;;;;;;;;;5012950;28;20072;-73
2023/01/01 00:40:41;;;;;;;6.10;4.20;;;;;;;;;;5012711;28;20056;-73
2023/01/01 00:43:09;;;;;;;6.88;4.38;;;15.10;74.20;;;;;;5012732;28;20060;-73
2023/01/01 00:45:36;;;;;;;7.57;4.30;;;;;;;;;;5012625;28;20060;-73
2023/01/01 00:48:03;;;;;;;6.82;4.32;;;;;;;;;;5012781;28;20144;-73
2023/01/01 00:50:30;;;;;;;5.38;4.35;;;;;;;;;;5012641;28;20054;-73
2023/01/01 00:52:57;;;;;;;7.22;4.80;;;;;;;;;;5025626;28;20053;-73
2023/01/01 00:55:24;;;;;;;6.68;4.60;;;;;;;;;;5031654;28;20137;-73
2023/01/01 00:57:51;;;;;;;5.75;4.00;;;;;;;;;;5033322;28;20047;-73
2023/01/01 01:00:20;;;;;;;7.22;4.07;;;;;;;;;;5032292;28;20060;-73
2023/01/01 01:02:47;;;;;;;7.75;4.63;;;;;;;;;;5031923;28;20502;-73
2023/01/01 01:05:14;;;;;;;6.15;4.05;;;;;;;;;;5032022;28;20057;-73
2023/01/01 01:07:41;;;;;;;6.32;4.18;;;;;;;;;;5014301;28;20084;-73
2023/01/01 01:10:10;;;;;;;7.03;4.10;;;;;;;;;;5012431;28;20132;-73
2023/01/01 01:12:37;;;;;;;6.25;4.20;;;;;;;;;;5012303;28;20100;-73
2023/01/01 01:15:05;;;;;;;4.88;4.20;;;;;;;;;;5013459;28;20054;-73
2023/01/01 01:17:34;;;;;;;7.28;4.60;;;;;;;;;;5011856;28;20049;-73
2023/01/01 01:20:01;;;;;;;5.70;4.40;;;;;;;;;;5011999;28;20053;-73
2023/01/01 01:22:28;;;;;;;7.70;4.95;;;;;;;;;;5030250;28;20056;-74
2023/01/01 01:24:55;;;;;;;6.50;4.30;;;;;;;;;;5031565;28;20056;-73
2023/01/01 01:27:22;;;;;;;5.65;4.15;;;;;;;;;;5031688;28;20064;-72
2023/01/01 01:29:49;;;;;;;7.10;4.70;;;;;;;;;;5031807;28;20497;-73
2023/01/01 01:32:16;;;;;;;6.60;4.35;;;;;;;;;;5031407;28;20067;-73
2023/01/01 01:34:45;;;;;;;7.30;4.63;;;15.00;74.10;;;;;;5031128;28;20604;-73
2023/01/01 01:37:12;;;;;;;6.55;4.75;;;;;;;;;;5031266;28;20168;-73
2023/01/01 01:39:39;;;;;;;7.60;4.70;;;;;;;;;;5032434;28;20055;-73
2023/01/01 01:42:06;;;;;;;7.13;4.82;;;;;;;;;;5031333;28;20129;-73
2023/01/01 01:45:03;;;;;;;6.10;5.03;;;;;;;;;;5031398;28;20057;-73
2023/01/01 01:47:32;;;;;;;7.35;4.72;;;;;;;;;;4974244;28;20061;-73
2023/01/01 01:50:03;;;;;;;5.68;4.53;;;14.90;74.10;;;;;;5010928;28;20053;-73
2023/01/01 01:52:30;;;;;;;7.85;4.93;;;;;;;;;;5011573;28;20061;-72
2023/01/01 01:54:57;;;;;;;6.93;4.47;;;;;;;;;;5011464;28;20143;-72
2023/01/01 01:57:24;;;;;;;7.70;5.00;;;;;;;;;;5011606;28;20141;-73
2023/01/01 01:59:51;;;;;;;7.13;5.20;;;;;;;;;;5011188;28;20054;-73
2023/01/01 02:02:20;;;;;;;6.05;4.63;;;15.80;74.00;;;;;;5011309;28;20061;-73
2023/01/01 02:04:47;;;;;;;7.10;5.10;;;;;;;;;;5021888;28;20151;-72
2023/01/01 02:07:15;;;;;;;8.05;5.50;;;;;;;;;;5032153;28;20072;-72
2023/01/01 02:09:42;;;;;;;8.50;5.18;;;;;;;;;;5031068;28;20052;-72
2023/01/01 02:12:09;;;;;;;7.25;5.00;;;;;;;;;;5031050;28;20063;-72
2023/01/01 02:14:36;;;;;;;6.15;4.75;;;;;;;;;;5031538;28;20102;-72
2023/01/01 02:17:07;;;;;;;7.47;4.78;;;14.90;72.80;;;;;;5030656;28;20059;-72
2023/01/01 02:19:39;;;;;;;7.45;5.15;;;14.90;73.80;;;;;;5029364;28;20053;-72
2023/01/01 02:22:07;;;;;;;8.80;5.25;;;;;;;;;;5030862;28;20063;-72
2023/01/01 02:24:49;;;;;;;7.38;5.57;;;14.80;74.00;;;;;;5031024;28;20053;-72
2023/01/01 02:27:21;;;;;;;8.00;5.03;;;14.90;73.20;;;;;;5030995;28;20053;-72
2023/01/01 02:29:49;;;;;;;6.95;5.03;;;;;;;;;;5030853;28;20059;-72
2023/01/01 02:32:19;;;;;;;7.20;5.15;;;14.90;74.20;;;;;;5029786;28;20061;-72
2023/01/01 02:34:47;;;;;;;7.80;5.13;;;;;;;;;;5030903;28;20144;-72
2023/01/01 02:37:15;;;;;;;7.35;4.95;;;;;;;;;;5030207;28;20056;-72
2023/01/01 02:39:43;;;;;;;6.88;5.32;;;;;;;;;;5030494;28;20402;-73
2023/01/01 02:42:10;;;;;;;6.50;4.90;;;;;;;;;;5030648;28;20151;-73
2023/01/01 02:44:38;;;;;;;7.43;5.32;;;;;;;;;;5030637;28;20095;-73
2023/01/01 02:47:10;;;;;;;7.40;5.70;;;;;;;;;;5030173;28;20092;-72
2023/01/01 02:49:38;;;;;;;8.23;5.35;;;;;;;;;;5030776;28;20072;-72
2023/01/01 02:52:05;;;;;;;7.45;5.20;;;;;;;;;;5030171;28;20056;-73
2023/01/01 02:54:34;;;;;;;6.45;4.88;;;14.90;74.10;;;;;;5030379;28;20050;-73
2023/01/01 02:57:06;;;;;;;9.00;5.60;;;;;;;;;;5029993;28;20140;-72
2023/01/01 03:02:22;;;;;;;5.75;4.88;;;;;;;;;;5029716;28;20144;-72
2023/01/01 03:04:51;;;;;;;6.38;4.97;;;;;;;;;;5030179;28;20049;-72
2023/01/01 03:07:20;;;;;;;8.13;5.40;;;;;;;;;;5030351;28;20053;-72
2023/01/01 03:09:48;;;;;;;7.22;5.40;;;;;;;;;;5030192;28;20062;-72
2023/01/01 03:12:19;;;;;;;7.20;5.63;;;14.80;74.20;;;;;;5030614;28;20077;-72
2023/01/01 03:14:47;;;;;;;8.57;5.30;;;;;;;;;;5030321;28;20068;-72
2023/01/01 03:17:16;;;;;;;7.97;5.30;;;;;;;;;;5030183;28;20057;-72
2023/01/01 03:19:45;;;;;;;7.40;5.28;;;;;;;;;;5033943;28;20063;-72
2023/01/01 03:22:12;;;;;;;7.60;5.65;;;;;;;;;;5033704;28;20050;-72
2023/01/01 03:24:43;;;;;;;7.45;5.45;;;14.80;74.30;;;;;;5034202;28;20063;-72
2023/01/01 03:27:11;;;;;;;7.43;6.10;;;;;;;;;;5021429;28;20410;-72
2023/01/01 03:29:39;;;;;;;6.40;5.15;;;;;;;;;;5013962;28;20495;-73
2023/01/01 03:32:06;;;;;;;9.02;5.72;;;;;;;;;;5013939;28;20065;-72
2023/01/01 03:34:34;;;;;;;8.43;5.50;;;;;;;;;;5015188;28;20045;-72
2023/01/01 03:37:05;;;;;;;7.15;5.68;;;14.70;74.20;;;;;;5023571;28;20079;-73
2023/01/01 03:39:33;;;;;;;7.53;5.95;;;;;;;;;;5033888;28;20060;-73
2023/01/01 03:42:05;;;;;;;7.15;5.40;;;14.70;74.20;;;;;;5033245;28;20049;-73
2023/01/01 03:44:34;;;;;;;8.43;5.93;;;14.80;73.80;;;;;;5033525;28;20049;-73
2023/01/01 03:47:01;;;;;;;8.50;5.93;;;;;;;;;;5033525;28;20049;-72
2023/01/01 03:49:29;;;;;;;9.85;5.45;;;;;;;;;;5033395;28;20570;-72
2023/01/01 03:51:57;;;;;;;6.78;5.30;;;;;;;;;;5033599;28;20502;-73
2023/01/01 03:54:29;;;;;;;6.95;5.63;;;;;;;;;;5033087;28;20049;-73
2023/01/01 03:56:58;;;;;;;7.57;5.82;;;;;;;;;;5033636;28;20060;-73
2023/01/01 03:59:26;;;;;;;7.20;5.40;;;;;;;;;;5033143;28;20053;-72
2023/01/01 04:01:53;;;;;;;7.57;6.05;;;;;;;;;;5033276;28;20475;-72
2023/01/01 04:04:20;;;;;;;7.10;5.65;;;;;;;;;;5033682;28;20419;-73
2023/01/01 04:06:47;;;;;;;7.65;5.70;;;;;;;;;;5032976;28;20045;-72
2023/01/01 04:09:18;;;;;;;9.38;5.78;;;;;;;;;;5032382;28;20045;-73
2023/01/01 04:12:03;;;;;;;7.00;5.03;;;;;;;;;;5033148;28;20132;-73
2023/01/01 04:14:30;;;;;;;7.00;5.38;;;;;;;;;;5033213;28;20104;-73
2023/01/01 04:16:57;;;;;;;7.07;5.43;;;;;;;;;;5033323;28;20049;-72
2023/01/01 04:19:24;;;;;;;8.57;5.38;;;;;;;;;;5033146;28;20517;-72
2023/01/01 04:21:51;;;;;;;8.80;5.60;;;;;;;;;;5032749;28;20052;-73
2023/01/01 04:24:19;;;;;;;8.35;5.90;;;;;;;;;;5033017;28;20053;-73
2023/01/01 04:26:47;;;;;;;8.95;5.68;;;;;;;;;;5023512;28;20054;-72
2023/01/01 04:29:14;;;;;;;6.97;5.13;;;;;;;;;;5012922;28;20057;-72
2023/01/01 04:31:41;;;;;;;8.48;5.05;;;;;;;;;;5013120;28;20060;-72
2023/01/01 04:34:08;;;;;;;7.40;5.30;;;;;;;;;;5012822;28;20061;-72
2023/01/01 04:36:36;;;;;;;8.63;5.32;;;;;;;;;;5019030;28;20056;-72
2023/01/01 04:39:03;;;;;;;7.47;5.30;;;;;;;;;;5032696;28;20071;-72
2023/01/01 04:41:30;;;;;;;7.03;4.82;;;;;;;;;;5032405;28;20425;-72
2023/01/01 04:43:59;;;;;;;7.40;5.28;;;;;;;;;;5032555;28;20641;-72
2023/01/01 04:46:26;;;;;;;7.75;5.30;;;;;;;;;;5032576;28;20148;-72
2023/01/01 04:48:53;;;;;;;7.88;4.97;;;;;;;;;;5032347;28;20057;-73
2023/01/01 04:51:20;;;;;;;7.47;5.28;;;;;;;;;;5032426;28;20136;-72
2023/01/01 04:53:47;;;;;;;6.20;5.10;;;;;;;;;;5022580;28;20060;-72
2023/01/01 04:56:15;;;;;;;6.57;4.93;;;14.80;72.60;;;;;;5012284;28;20060;-72
2023/01/01 04:58:42;;;;;;;7.28;5.50;;;;;;;;;;5012285;28;20137;-72
2023/01/01 05:01:12;;;;;;;7.47;4.90;;;;;;;;;;5012469;28;20061;-73
2023/01/01 05:03:39;;;;;;;5.97;4.80;;;;;;;;;;5013375;28;20053;-73
2023/01/01 05:06:07;;;;;;;5.13;4.35;;;14.60;73.70;;;;;;5013589;28;20052;-73
2023/01/01 05:08:34;;;;;;;6.72;4.82;;;;;;;;;;5012375;28;20664;-73
2023/01/01 05:11:01;;;;;;;6.78;5.18;;;;;;;;;;5012493;28;20050;-73
2023/01/01 05:13:29;;;;;;;7.85;5.40;;;;;;;;;;5012222;28;20053;-73
2023/01/01 05:15:56;;;;;;;8.13;5.10;;;;;;;;;;5012378;28;20062;-73
2023/01/01 05:18:24;;;;;;;6.18;4.60;;;;;;;;;;5012513;28;20140;-73
2023/01/01 05:20:51;;;;;;;6.60;5.00;;;;;;;;;;5012227;28;20056;-72
2023/01/01 05:23:18;;;;;;;6.22;4.85;;;;;;;;;;5023502;28;20063;-72
2023/01/01 05:25:46;;;;;;;6.07;4.28;;;;;;;;;;5031595;28;20136;-72
2023/01/01 05:28:13;;;;;;;7.20;4.60;;;;;;;;;;5031638;28;20052;-72
2023/01/01 05:30:40;;;;;;;6.47;4.75;;;;;;;;;;5031627;28;20045;-72
2023/01/01 05:33:07;;;;;;;6.97;4.28;;;;;;;;;;5032653;28;20053;-72
2023/01/01 05:35:35;;;;;;;7.25;4.82;;;;;;;;;;5031115;28;20060;-73
2023/01/01 05:38:03;;;;;;;6.60;4.72;;;;;;;;;;5029417;28;20093;-73
2023/01/01 05:40:30;;;;;;;5.47;4.40;;;;;;;;;;5031139;28;20053;-73
2023/01/01 05:42:57;;;;;;;7.38;4.95;;;;;;;;;;5031082;28;20478;-73
2023/01/01 05:45:24;;;;;;;5.93;4.38;;;;;;;;;;5031117;28;20421;-73
2023/01/01 05:47:51;;;;;;;6.45;4.40;;;;;;;;;;5031283;28;20536;-73
2023/01/01 05:50:18;;;;;;;5.63;4.43;;;;;;;;;;5031324;28;20502;-72
2023/01/01 05:52:47;;;;;;;5.40;4.28;;;;;;;;;;5011599;28;20052;-72
2023/01/01 05:55:14;;;;;;;6.45;4.20;;;;;;;;;;5011518;28;20050;-72
2023/01/01 05:57:41;;;;;;;7.45;4.45;;;;;;;;;;5013939;28;20271;-73
2023/01/01 06:00:08;;;;;;;6.82;4.63;;;;;;;;;;5031401;28;20428;-73
2023/01/01 06:02:35;;;;;;;5.93;3.88;;;;;;;;;;5031073;28;20077;-73
2023/01/01 06:05:02;;;;;;;5.82;4.32;;;;;;;;;;5031017;28;20055;-73
2023/01/01 06:07:30;;;;;;;5.72;4.22;;;;;;;;;;5031123;28;20063;-73
2023/01/01 06:09:58;;;;;;;6.50;4.28;;;;;;;;;;5031245;28;20156;-73
2023/01/01 06:12:25;;;;;;;6.25;3.90;;;;;;;;;;5030883;28;20051;-72
2023/01/01 06:14:52;;;;;;;5.45;3.97;;;;;;;;;;5031192;28;20061;-73
2023/01/01 06:17:19;;;;;;;5.65;4.15;;;;;;;;;;5030855;28;20053;-73
2023/01/01 06:19:47;;;;;;;4.70;3.70;;;;;;;;;;5030743;28;20049;-73
2023/01/01 06:22:14;;;;;;;4.93;3.70;;;;;;;;;;5030278;28;20045;-73
2023/01/01 06:24:41;;;;;;;5.10;4.10;;;;;;;;;;5031098;28;20060;-73
2023/01/01 06:27:09;;;;;;;5.13;3.65;;;;;;;;;;5030977;28;20061;-73
2023/01/01 06:29:36;;;;;;;5.05;3.80;;;;;;;;;;5030778;28;20136;-73
2023/01/01 06:32:04;;;;;;;5.45;3.40;;;;;;;;;;5030875;28;20045;-73
2023/01/01 06:34:31;;;;;;;5.88;3.97;;;;;;;;;;5030906;28;20490;-73
2023/01/01 06:36:58;;;;;;;5.28;3.70;;;;;;;;;;5030427;28;20478;-73
2023/01/01 06:39:25;;;;;;;6.45;3.90;;;;;;;;;;5030624;28;20049;-72
2023/01/01 06:41:52;;;;;;;5.25;3.80;;;;;;;;;;5030868;28;20049;-73
2023/01/01 06:44:20;;;;;;;5.10;3.45;;;;;;;;;;5030604;28;20053;-73
2023/01/01 06:46:47;;;;;;;4.60;3.67;;;;;;;;;;5030533;28;20053;-73
2023/01/01 06:49:14;;;;;;;5.72;3.70;;;;;;;;;;5030734;28;20053;-73
2023/01/01 06:51:42;;;;;;;4.95;3.60;;;;;;;;;;5030072;28;20131;-73
2023/01/01 06:54:09;;;;;;;5.95;3.67;;;;;;;;;;5033841;28;20526;-73
2023/01/01 06:56:36;;;;;;;4.43;3.47;;;;;;;;;;5034513;28;20053;-73
2023/01/01 06:59:03;;;;;;;6.72;3.40;;;;;;;;;;5034754;28;20055;-73
2023/01/01 07:01:32;;;;;;;4.50;3.30;;;14.60;72.30;;;;;;5034554;28;20060;-73
2023/01/01 07:03:59;;;;;;;7.18;3.67;;;;;;;;;;5034420;28;20057;-73
2023/01/01 07:06:27;;;;;;;7.35;3.30;;;;;;;;;;5034431;28;20061;-73
2023/01/01 07:08:54;;;;;;;4.28;3.20;;;;;;;;;;5034273;28;20053;-73
2023/01/01 07:11:21;;;;;;;4.80;3.38;;;;;;;;;;5035734;28;20050;-73
2023/01/01 07:13:48;;;;;;;4.07;3.08;;;;;;;;;;5035203;28;20060;-73
2023/01/01 07:16:15;;;;;;;5.85;3.30;;;;;;;;;;5034471;28;20140;-73
2023/01/01 07:18:43;;;;;;;4.00;3.10;;;;;;;;;;5033852;28;20056;-73
2023/01/01 07:21:22;;;;;;;4.40;3.13;;;;;;;;;;5014432;28;20054;-73
2023/01/01 07:23:49;;;;;;;4.15;2.80;;;;;;;;;;5022637;28;20061;-73
2023/01/01 07:26:16;;;;;;;4.05;3.15;;;;;;;;;;5014313;28;20050;-73
2023/01/01 07:28:43;;;;;;;3.83;2.83;;;;;;;;;;5015217;28;20058;-73
2023/01/01 07:31:10;;;;;;;4.65;3.20;;;;;;;;;;5014358;28;20064;-73
2023/01/01 07:33:37;;;;;;;5.75;3.00;;;;;;;;;;5014166;28;20132;-72
2023/01/01 07:36:06;;;;;;;3.35;2.70;;;;;;;;;;5022431;28;20063;-73
2023/01/01 07:38:33;;;;;;;5.00;3.38;;;;;;;;;;5033643;28;20064;-73
2023/01/01 07:41:00;;;;;;;4.85;3.25;;;;;;;;;;5033909;28;20136;-73
2023/01/01 07:43:27;;;;;;;3.83;2.53;;;;;;;;;;5033291;28;20059;-73
2023/01/01 07:45:54;;;;;;;4.13;2.75;;;;;;;;;;5033182;28;20057;-73
2023/01/01 07:48:21;;;;;;;5.00;2.90;;;;;;;;;;5032435;28;20057;-73
2023/01/01 07:50:49;;;;;;;4.28;2.92;;;;;;;;;;5024142;28;20053;-73
2023/01/01 07:53:17;;;;;;;3.85;2.80;;;;;;;;;;5012545;28;20132;-73
2023/01/01 07:55:44;;;;;;;3.67;2.85;;;;;;;;;;5012819;28;20564;-73
2023/01/01 07:58:12;;;;;;;6.03;2.67;;;;;;;;;;5012870;28;20133;-73
2023/01/01 08:00:39;;;;;;;4.72;3.08;;;;;;;;;;5012307;28;20429;-73
2023/01/01 08:03:06;;;;;;;4.38;2.72;;;;;;;;;;5012157;28;20406;-72
2023/01/01 08:05:34;;;;;;;3.70;2.55;;;;;;;;;;5025203;28;20081;-73
2023/01/01 08:08:01;;;;;;;3.60;2.45;;;;;;;;;;5033306;28;20482;-73
2023/01/01 08:10:30;;;;;;;3.17;2.53;;;;;;;;;;5025472;28;20079;-73
2023/01/01 08:13:00;;;;;;;3.92;2.42;;;14.60;72.70;;;;;;5011980;28;20060;-74
2023/01/01 08:15:27;;;;;;;4.38;2.67;;;;;;;;;;5012608;28;20062;-73
2023/01/01 08:17:56;;;;;;;4.13;2.50;;;14.50;74.50;;;;;;5012416;28;20062;-73
2023/01/01 08:20:23;;;;;;;3.05;2.40;;;;;;;;;;5013534;28;20120;-73
2023/01/01 08:22:50;;;;;;;3.17;2.30;;;;;;;;;;5030499;28;20053;-73
2023/01/01 08:25:17;;;;;;;3.13;2.40;;;;;;;;;;5026267;28;20053;-73
2023/01/01 08:27:46;;;;;;;3.15;2.30;;;;;;;;;;5023352;28;20067;-73
2023/01/01 08:30:13;;;;;;;3.38;2.30;;;;;;;;;;5032256;28;20140;-73
2023/01/01 08:32:40;;;;;;;2.80;2.03;;;;;;;;;;5031382;28;20055;-73
2023/01/01 08:35:08;;;;;;;4.28;2.40;;;;;;;;;;5031604;28;20063;-73
2023/01/01 08:37:35;;;;;;;3.35;2.17;;;;;;;;;;5015332;28;20054;-73
2023/01/01 08:40:02;;;;;;;2.75;2.15;;;;;;;;;;5013767;28;20050;-73
2023/01/01 08:42:29;;;;;;;2.90;1.85;;;;;;;;;;5027205;28;20056;-73
2023/01/01 08:44:57;;;;;;;2.45;1.90;;;;;;;;;;4989486;28;1036833;-73
2023/01/01 08:47:25;;;;;;;4.05;2.22;;;;;;;;;;5019706;28;20057;-73
2023/01/01 08:49:52;;;;;;;2.67;2.10;;;;;;;;;;5021639;28;20433;-73
2023/01/01 08:52:19;;;;;;;3.08;1.92;;;;;;;;;;5025010;28;20045;-73
2023/01/01 08:54:46;;;;;;;3.53;2.00;;;;;;;;;;5024095;28;20056;-73
2023/01/01 08:57:13;;;;;;;3.35;2.13;;;;;;;;;;5024058;28;20049;-73
2023/01/01 08:59:40;;;;;;;2.13;1.80;;;;;;;;;;5026548;28;20129;-73
2023/01/01 09:02:09;;;;;;;3.35;1.88;;;15.20;73.30;;;;;;5020359;28;20053;-73
2023/01/01 09:04:36;;;;;;;2.50;1.85;;;;;;;;;;5026736;28;20050;-73
2023/01/01 09:07:03;;;;;;;2.88;1.90;;;;;;;;;;5031791;28;20049;-73
2023/01/01 09:09:31;;;;;;;2.17;1.85;;;;;;;;;;5029041;28;20057;-73
2023/01/01 09:12:02;;;;;;;2.75;1.90;;;;;;;;;;5016307;28;20132;-73
2023/01/01 09:14:29;;;;;;;3.95;1.90;;;;;;;;;;5028545;28;20054;-73
2023/01/01 09:16:56;;;;;;;2.88;1.60;;;;;;;;;;5021368;28;20063;-73
2023/01/01 09:19:25;;;;;;;2.88;1.83;;;;;;;;;;5020478;28;20045;-73
2023/01/01 09:21:52;;;;;;;2.33;1.70;;;;;;;;;;5020244;28;20107;-73
2023/01/01 09:24:19;;;;;;;2.80;1.75;;;;;;;;;;5024783;28;20058;-73
2023/01/01 09:26:46;;;;;;;2.88;1.80;;;;;;;;;;5033104;28;20068;-73
2023/01/01 09:29:17;;;;;;;3.58;2.03;;;;;;;;;;5032844;28;20056;-74
2023/01/01 09:31:44;;;;;;;2.30;1.70;;;;;;;;;;5024016;28;20479;-74
2023/01/01 09:34:11;;;;;;;2.85;1.75;;;;;;;;;;5020646;28;20051;-74
2023/01/01 09:36:39;;;;;;;2.67;1.77;;;;;;;;;;5019683;28;20132;-74
2023/01/01 09:39:06;;;;;;;3.72;1.52;;;;;;;;;;5020372;28;20049;-74
2023/01/01 09:41:38;;;;;;;2.42;1.73;;;;;;;;;;5012093;28;20084;-73
2023/01/01 09:44:09;;;;;;;2.22;1.63;;;15.70;72.40;;;;;;5011773;28;20046;-73
2023/01/01 09:46:36;;;;;;;2.85;1.70;;;;;;;;;;5011938;28;20053;-73
2023/01/01 09:49:04;;;;;;;3.55;2.05;;;;;;;;;;5026853;28;20045;-74
2023/01/01 09:51:31;;;;;;;2.60;1.60;;;;;;;;;;5030793;28;20053;-73
2023/01/01 09:54:00;;;;;;;2.75;1.67;;;;;;;;;;5022452;28;20049;-73
2023/01/01 09:56:27;;;;;;;3.35;1.70;;;;;;;;;;5014275;28;20052;-73
2023/01/01 09:58:57;;;;;;;3.00;1.77;;;;;;;;;;5019218;28;20052;-74
2023/01/01 10:01:32;;;;;;;1.98;1.45;;;15.80;72.00;;;;;;5011829;28;20054;-74
2023/01/01 10:04:00;;;;;;;;;;;15.80;72.00;;;;;;5010748;28;20060;-74
2023/01/01 10:06:28;;;;;;;3.53;1.90;;;15.80;70.10;;;;;;5030089;28;19927;-74
2023/01/01 10:09:00;;;;;;;2.45;1.73;;;;;;;;;;5011112;28;20060;-74
2023/01/01 10:11:27;;;;;;;3.85;1.58;;;;;;;;;;5017575;28;20075;-74
2023/01/01 10:13:54;;;;;;;1.88;1.38;;;;;;;;;;5019551;28;20045;-74
2023/01/01 10:16:24;;;;;;;2.28;1.45;;;;;;;;;;5011226;28;20084;-75
2023/01/01 10:18:53;;;;;;;3.60;1.50;;;;;;;;;;5025434;28;20049;-75
2023/01/01 10:21:20;;;;;;;2.47;1.60;;;;;;;;;;5026298;28;20070;-75
2023/01/01 10:23:48;;;;;;;2.72;1.60;;;;;;;;;;5019480;28;20132;-75
2023/01/01 10:26:17;;;;;;;2.30;1.45;;;;;;;;;;5023868;28;20542;-75
2023/01/01 10:28:47;;;;;;;4.10;1.77;;;;;;;;;;5030117;28;20058;-74
2023/01/01 10:31:18;;;;;;;1.73;1.33;;;;;;;;;;5030290;28;20418;-74
2023/01/01 10:33:45;;;;;;;2.70;1.60;;;;;;;;;;5016070;28;20049;-74
2023/01/01 10:36:13;;;;;;;3.45;1.63;;;;;;;;;;5021198;28;20053;-74
2023/01/01 10:38:40;;;;;;;2.42;1.33;;;;;;;;;;5025148;28;20495;-74
2023/01/01 10:41:07;;;;;;;3.17;1.70;;;;;;;;;;5012070;28;20423;-74
2023/01/01 10:43:36;;;;;;;3.28;1.83;;;;;;;;;;5013811;28;20051;-74
2023/01/01 10:46:03;;;;;;;2.58;1.60;;;;;;;;;;5028057;28;20136;-74
2023/01/01 10:48:30;;;;;;;2.33;1.42;;;;;;;;;;5009812;28;20053;-74
2023/01/01 10:50:58;;;;;;;4.25;1.60;;;;;;;;;;5010370;28;20072;-74
2023/01/01 10:53:26;;;;;;;3.78;1.60;;;;;;;;;;5010586;28;20506;-74
2023/01/01 10:55:58;;;;;;;2.63;1.40;;;;;;;;;;5010027;28;20053;-74
2023/01/01 10:58:28;;;;;;;3.22;1.50;;;;;;;;;;5025875;28;20064;-74
2023/01/01 11:01:00;;;;;;;2.65;1.50;;;;;;;;;;5017479;28;20384;-74
2023/01/01 11:03:27;;;;;;;4.28;1.30;;;;;;;;;;5020327;28;20052;-74
2023/01/01 11:06:00;;;;;;;2.90;1.30;;;;;;;;;;5027555;28;20057;-74
2023/01/01 11:08:27;;;;;;;3.40;1.50;;;;;;;;;;5012573;28;20474;-74
2023/01/01 11:11:01;;;;;;;2.70;1.50;;;;;;;;;;5011046;28;20050;-74
2023/01/01 11:13:28;;;;;;;3.38;1.48;;;;;;;;;;5028324;28;20053;-74
2023/01/01 11:15:55;;;;;;;2.42;1.25;;;;;;;;;;5030743;28;20057;-74
2023/01/01 11:18:24;;;;;;;2.72;1.60;;;;;;;;;;5027685;28;20057;-74
2023/01/01 11:20:54;;;;;;;2.42;1.75;;;;;;;;;;5022655;28;20065;-74
2023/01/01 11:23:28;;;;;;;3.08;1.40;;;;;;;;;;5021747;28;20056;-74
2023/01/01 11:26:00;;;;;;;4.68;1.48;;;;;;;;;;5020714;28;20054;-74
2023/01/01 11:28:30;;;;;;;2.35;1.33;;;;;;;;;;5043720;28;20140;-74
2023/01/01 11:31:15;;;;;;;2.88;1.25;;;;;;;;;;5025139;28;20468;-74
2023/01/01 11:33:45;;;;;;;2.20;1.35;;;;;;;;;;5023597;28;20056;-74
2023/01/01 11:36:12;;;;;;;4.00;1.40;;;;;;;;;;5019268;28;20136;-74
2023/01/01 11:38:39;;;;;;;3.55;1.40;;;;;;;;;;5017077;28;20056;-74
2023/01/01 11:41:07;;;;;;;4.00;1.52;;;;;;;;;;5016741;28;20072;-74
2023/01/01 11:43:36;;;;;;;2.33;1.30;;;;;;;;;;5024830;28;20056;-74
2023/01/01 11:46:06;;;;;;;2.97;1.60;;;;;;;;;;5019671;28;20053;-74
2023/01/01 11:48:33;;;;;;;3.05;1.50;;;;;;;;;;5027127;28;20045;-74
2023/01/01 11:51:02;;;;;;;2.30;1.30;;;15.60;72.30;;;;;;5024020;28;20136;-74
2023/01/01 11:53:30;;;;;;;2.17;1.40;;;;;;;;;;5024187;28;20445;-73
2023/01/01 11:56:02;;;;;;;3.83;1.63;;;15.60;73.00;;;;;;5032239;28;20474;-73
2023/01/01 11:58:31;;;;;;;1.77;1.25;;;15.60;73.00;;;;;;5019795;28;20501;-73
2023/01/01 12:00:59;;;;;;;2.13;1.20;;;;;;;;;;5023151;28;20414;-73
2023/01/01 12:03:28;;;;;;;2.72;1.45;;;15.60;72.50;;;;;;5016404;28;20056;-73
2023/01/01 12:05:56;;;;;;;2.85;1.42;;;15.50;72.50;;;;;;5013175;28;20081;-73
2023/01/01 12:08:28;;;;;;;3.05;1.45;;;;;;;;;;5021977;28;20064;-73
2023/01/01 12:10:56;;;;;;;1.60;1.10;;;;;;;;;;5032236;28;20053;-73
2023/01/01 12:13:25;;;;;;;4.22;1.30;;;;;;;;;;5026948;28;20046;-73
2023/01/01 12:15:53;;;;;;;2.70;1.20;;;;;;;;;;5021721;28;20049;-73
2023/01/01 12:18:22;;;;;;;6.53;1.45;;;15.60;73.10;;;;;;5021451;28;20140;-73
2023/01/01 12:20:50;;;;;;;3.92;1.52;;;15.60;70.80;;;;;;5012500;28;20107;-73
2023/01/01 12:23:17;;;;;;;2.85;1.40;;;;;;;;;;5018336;28;20053;-74
2023/01/01 12:25:47;;;;;;;3.40;1.42;;;;;;;;;;5026279;28;20053;-74
2023/01/01 12:28:20;;;;;;;4.15;1.40;;;15.70;73.20;;;;;;5022570;28;20517;-73
2023/01/01 12:30:51;;;;;;;3.78;1.48;;;15.70;73.10;;;;;;5028940;28;20053;-73
2023/01/01 12:33:31;;;;;;;2.72;1.10;;;;;;;;;;5031927;28;20049;-73
2023/01/01 12:36:10;;;;;;;3.75;1.40;;;15.80;72.70;;;;;;5020032;28;20064;-75
2023/01/01 12:38:45;;;;;;;3.30;1.40;;;;;;;;;;5032590;28;20402;-75
2023/01/01 12:41:13;;;;;;;3.38;1.52;;;;;;;;;;5032785;28;20056;-75
2023/01/01 12:43:43;;;;;;;9.25;1.83;;;;;;;;;;5016155;28;20056;-75
2023/01/01 12:46:15;;;;;;;10.50;2.10;;;;;;;;;;5013113;28;20060;-75
2023/01/01 12:48:51;;;;;;;8.93;2.00;;;;;;;;;;5030856;28;20052;-74
2023/01/01 12:51:25;;;;;;;6.43;2.28;;;15.90;72.80;;;;;;5031868;28;20469;-75
2023/01/01 12:53:55;;;;;;;8.33;2.27;;;;;;;;;;5033220;28;20124;-75
2023/01/01 12:56:24;;;;;;;10.43;2.33;;;15.90;73.10;;;;;;5033705;28;20055;-75
2023/01/01 12:58:52;;;;;;;7.97;2.15;;;;;;;;;;5034654;28;20434;-75
2023/01/01 13:01:21;;;;;;;11.98;2.42;;;16.00;73.10;;;;;;5032944;28;20072;-75
2023/01/01 13:03:49;;;;;;;8.82;2.40;;;;;;;;;;5032994;28;20128;-75
2023/01/01 13:06:16;;;;;;;18.58;3.88;;;;;;;;;;5033334;28;20136;-75
2023/01/01 13:08:43;;;;;;;8.93;2.22;;;;;;;;;;5032924;28;20060;-75
2023/01/01 13:11:10;;;;;;;8.77;2.40;;;;;;;;;;5033394;28;20143;-75
2023/01/01 13:13:39;;;;;;;15.27;3.08;;;;;;;;;;5033160;28;20053;-75
2023/01/01 13:16:08;;;;;;;13.25;3.30;;;15.90;72.20;;;;;;5020262;28;20049;-75
2023/01/01 13:18:35;;;;;;;12.40;3.05;;;;;;;;;;5013004;28;20141;-75
2023/01/01 13:21:04;;;;;;;7.13;2.80;;;;;;;;;;5013049;28;20145;-75
2023/01/01 13:23:44;;;;;;;13.60;3.03;;;;;;;;;;5012672;28;20124;-75
2023/01/01 13:26:30;;;;;;;8.65;2.70;;;;;;;;;;5012459;28;20066;-75
2023/01/01 13:29:30;;;;;;;9.35;2.85;;;15.80;73.60;;;;;;5012943;28;20132;-75
2023/01/01 13:32:02;;;;;;;8.85;2.63;;;;;;;;;;5013518;28;20052;-75
2023/01/01 13:34:34;;;;;;;6.80;2.40;;;;;;;;;;5012767;28;20058;-75
2023/01/01 13:37:28;;;;;;;8.73;2.70;;;15.80;73.80;;;;;;5018831;28;20418;-75
2023/01/01 13:39:55;;;;;;;9.38;2.42;;;15.70;73.00;;;;;;5012719;28;20410;-75
2023/01/01 13:42:38;;;;;;;10.82;2.63;;;;;;;;;;5011922;28;20137;-75
2023/01/01 13:45:07;;;;;;;7.80;2.55;;;;;;;;;;5030635;28;20050;-75
2023/01/01 13:47:36;;;;;;;11.77;2.90;;;;;;;;;;5031854;28;20501;-75
2023/01/01 13:50:04;;;;;;;10.32;2.30;;;;;;;;;;5032376;28;20063;-75
2023/01/01 13:52:46;;;;;;;7.75;2.60;;;15.70;74.00;;;;;;5032171;28;20064;-75
2023/01/01 13:55:38;;;;;;;7.05;2.40;;;15.60;70.20;;;;;;5032227;28;20819;-75
2023/01/01 13:58:47;;;;;;;8.57;2.33;;;15.70;74.00;;;;;;5031442;28;20505;-75
2023/01/01 14:01:19;;;;;;;9.57;2.67;;;;;;;;;;5031726;28;20498;-75
2023/01/01 14:03:47;;;;;;;6.25;2.22;;;;;;;;;;5031449;28;20132;-75
2023/01/01 14:06:15;;;;;;;9.07;2.35;;;;;;;;;;5031946;28;20160;-75
2023/01/01 14:08:42;;;;;;;8.07;2.40;;;;;;;;;;5031616;28;20559;-75
2023/01/01 14:11:19;;;;;;;8.90;2.47;;;;;;;;;;5031185;28;20049;-75
2023/01/01 14:13:46;;;;;;;8.02;2.42;;;;;;;;;;5011444;28;20050;-75
2023/01/01 14:16:14;;;;;;;9.18;3.03;;;;;;;;;;5012038;28;20068;-75
2023/01/01 14:18:42;;;;;;;7.90;2.72;;;;;;;;;;5011765;28;20057;-75
2023/01/01 14:21:10;;;;;;;7.10;2.45;;;;;;;;;;5012703;28;20053;-75
2023/01/01 14:23:38;;;;;;;6.65;2.53;;;;;;;;;;5031319;28;20053;-75
2023/01/01 14:26:08;;;;;;;9.55;3.00;;;15.50;74.20;;;;;;5031350;28;20084;-75
2023/01/01 14:28:35;;;;;;;7.63;2.55;;;;;;;;;;5031290;28;20052;-75
2023/01/01 14:31:05;;;;;;;10.25;2.33;;;15.50;74.30;;;;;;5031084;28;20045;-75
2023/01/01 14:33:32;;;;;;;7.68;2.80;;;;;;;;;;5031016;28;20060;-75
2023/01/01 14:36:00;;;;;;;8.60;2.28;;;;;;;;;;5030548;28;20053;-75
2023/01/01 14:38:29;;;;;;;5.53;2.30;;;15.40;72.20;;;;;;5031147;28;20064;-75